Time;durP1;ratioP1;P1;durP2;ratioP2;P2;SDS_P1;SDS_P2;PMS_P1;PMS_P2;Temp;Humidity;BMP_temperature;BMP_pressure;BME280_temperature;BME280_humidity;BME280_pressure;Samples;Min_cycle;Max_cycle;Signal;HPM_P1;HPM_P2
2021/05/27 00:01:38;;;;;;;0.90;0.90;;;9.90;95.20;;;;;;5081555;28;20202;-77
2021/05/27 00:04:05;;;;;;;1.80;1.70;;;10.00;94.30;;;;;;5075502;28;20217;-77
2021/05/27 00:06:31;;;;;;;1.80;1.70;;;10.10;93.70;;;;;;5075007;28;20630;-77
2021/05/27 00:08:58;;;;;;;2.15;1.35;;;10.00;93.10;;;;;;5076598;28;20229;-77
2021/05/27 00:11:24;;;;;;;2.08;1.50;;;10.00;93.20;;;;;;5076230;28;20213;-78
2021/05/27 00:13:51;;;;;;;6.55;1.40;;;10.00;93.10;;;;;;5077910;28;20311;-77
2021/05/27 00:16:18;;;;;;;2.00;1.30;;;10.00;93.10;;;;;;5084925;28;20220;-77
2021/05/27 00:18:44;;;;;;;1.65;1.55;;;10.00;93.20;;;;;;5134059;22;20243;-78
2021/05/27 00:21:11;;;;;;;1.63;1.50;;;9.90;93.70;;;;;;5124315;28;20216;-78
2021/05/27 00:23:37;;;;;;;1.55;1.45;;;10.00;93.50;;;;;;5130366;28;20232;-78
2021/05/27 00:26:03;;;;;;;1.33;1.23;;;9.90;93.50;;;;;;5131471;28;20264;-78
2021/05/27 00:28:30;;;;;;;1.90;1.67;;;9.90;93.80;;;;;;5128692;28;20324;-78
2021/05/27 00:30:57;;;;;;;1.70;1.35;;;9.90;93.80;;;;;;5124542;28;20227;-78
2021/05/27 00:33:23;;;;;;;1.33;1.23;;;9.90;93.90;;;;;;5129359;28;20236;-78
2021/05/27 00:35:50;;;;;;;2.95;1.60;;;9.80;94.10;;;;;;5119611;28;20208;-78
2021/05/27 00:38:16;;;;;;;1.45;1.35;;;9.80;94.40;;;;;;5117626;28;20256;-78
2021/05/27 00:40:42;;;;;;;1.60;1.50;;;9.90;94.40;;;;;;5122888;28;20730;-77
2021/05/27 00:43:09;;;;;;;1.40;1.30;;;9.90;94.70;;;;;;5122975;28;20303;-77
2021/05/27 00:45:35;;;;;;;1.45;1.35;;;9.90;94.40;;;;;;5124617;28;20232;-78
2021/05/27 00:48:03;;;;;;;1.60;1.50;;;10.00;93.50;;;;;;5129991;28;20220;-77
2021/05/27 00:50:29;;;;;;;2.05;1.85;;;10.10;93.50;;;;;;5131577;28;20656;-78
2021/05/27 00:52:57;;;;;;;1.65;1.55;;;10.10;93.00;;;;;;5129050;28;20296;-77
2021/05/27 00:55:25;;;;;;;1.80;1.70;;;10.10;92.30;;;;;;5135327;28;20206;-77
2021/05/27 00:57:53;;;;;;;1.65;1.55;;;10.20;92.00;;;;;;5127499;28;20235;-78
2021/05/27 01:00:23;;;;;;;2.25;1.60;;;10.10;91.50;;;;;;5119960;28;20205;-77
2021/05/27 01:02:49;;;;;;;1.65;1.50;;;10.20;91.30;;;;;;5124198;27;20232;-78
2021/05/27 01:05:17;;;;;;;1.38;1.25;;;10.20;91.30;;;;;;5129840;28;20188;-78
2021/05/27 01:07:44;;;;;;;2.15;1.50;;;10.20;91.30;;;;;;5119054;28;20560;-77
2021/05/27 01:10:13;;;;;;;2.15;1.40;;;10.20;91.30;;;;;;5113817;28;20729;-77
2021/05/27 01:12:40;;;;;;;1.60;1.50;;;10.20;91.30;;;;;;5113465;28;20734;-77
2021/05/27 01:15:31;;;;;;;1.70;1.60;;;10.20;91.30;;;;;;5113428;28;20255;-77
2021/05/27 01:17:59;;;;;;;2.80;1.80;;;10.30;91.40;;;;;;5112159;28;20239;-78
2021/05/27 01:20:27;;;;;;;2.67;1.63;;;10.30;91.40;;;;;;5113406;28;20224;-77
2021/05/27 01:22:55;;;;;;;1.70;1.60;;;10.30;90.90;;;;;;5112518;28;20587;-77
2021/05/27 01:25:21;;;;;;;3.17;1.80;;;10.30;91.00;;;;;;5114520;28;20228;-78
2021/05/27 01:27:47;;;;;;;2.00;1.80;;;10.30;91.20;;;;;;5128406;28;20216;-78
2021/05/27 01:30:15;;;;;;;1.80;1.70;;;10.30;90.70;;;;;;5131045;28;20295;-77
2021/05/27 01:32:42;;;;;;;3.30;1.90;;;10.40;90.60;;;;;;5131963;28;20209;-78
2021/05/27 01:35:14;;;;;;;1.95;1.80;;;10.40;90.60;;;;;;5132871;28;20219;-77
2021/05/27 01:37:41;;;;;;;1.80;1.70;;;10.40;90.70;;;;;;5123922;28;20371;-77
2021/05/27 01:40:09;;;;;;;2.03;1.83;;;10.40;90.60;;;;;;5115507;28;20296;-77
2021/05/27 01:42:36;;;;;;;2.35;1.92;;;10.40;90.20;;;;;;5113715;28;20204;-77
2021/05/27 01:45:04;;;;;;;1.80;1.70;;;10.50;90.10;;;;;;5112982;28;20292;-77
2021/05/27 01:47:30;;;;;;;1.67;1.58;;;10.50;90.10;;;;;;5111079;28;20236;-77
2021/05/27 01:49:56;;;;;;;2.28;1.92;;;10.50;90.00;;;;;;5113162;28;20210;-77
2021/05/27 01:52:23;;;;;;;3.45;1.80;;;10.50;90.20;;;;;;5113554;28;20273;-77
2021/05/27 01:54:49;;;;;;;1.70;1.60;;;10.50;89.90;;;;;;5112990;28;20302;-77
2021/05/27 01:57:17;;;;;;;1.98;1.88;;;10.40;89.60;;;;;;5114079;28;20272;-76
2021/05/27 01:59:43;;;;;;;3.45;1.90;;;10.30;89.80;;;;;;5117118;28;20220;-76
2021/05/27 02:02:10;;;;;;;3.22;1.75;;;10.20;90.20;;;;;;5124233;28;20204;-77
2021/05/27 02:04:36;;;;;;;3.25;1.90;;;10.10;91.10;;;;;;5128189;28;20256;-76
2021/05/27 02:07:10;;;;;;;1.90;1.80;;;10.00;91.30;;;;;;5129234;28;20209;-77
2021/05/27 02:09:37;;;;;;;2.13;2.00;;;9.90;92.10;;;;;;5123349;28;20199;-77
2021/05/27 02:12:04;;;;;;;2.42;2.22;;;9.90;92.70;;;;;;5114303;28;20204;-77
2021/05/27 02:14:31;;;;;;;3.95;2.35;;;9.80;93.10;;;;;;5114103;28;20208;-77
2021/05/27 02:16:58;;;;;;;3.47;2.55;;;9.70;93.80;;;;;;5112710;28;20200;-77
2021/05/27 02:19:24;;;;;;;2.55;2.30;;;9.70;94.50;;;;;;5113535;28;20326;-77
2021/05/27 02:21:51;;;;;;;2.50;2.30;;;9.70;95.20;;;;;;5113670;28;20209;-78
2021/05/27 02:24:18;;;;;;;2.55;2.10;;;9.70;95.20;;;;;;5134478;28;20184;-77
2021/05/27 02:26:45;;;;;;;3.40;2.10;;;9.70;95.20;;;;;;5135703;28;20388;-77
2021/05/27 02:29:11;;;;;;;3.95;3.13;;;9.60;95.50;;;;;;5129621;28;20248;-77
2021/05/27 02:31:39;;;;;;;2.75;2.55;;;9.60;95.60;;;;;;5132865;28;20201;-78
2021/05/27 02:34:05;;;;;;;3.20;2.75;;;9.50;96.30;;;;;;5132260;28;20267;-78
2021/05/27 02:36:32;;;;;;;3.20;2.92;;;9.50;96.60;;;;;;5130709;28;20215;-77
2021/05/27 02:38:59;;;;;;;2.70;2.50;;;9.50;96.90;;;;;;5130394;28;20255;-77
2021/05/27 02:41:25;;;;;;;3.45;2.92;;;9.40;97.40;;;;;;5135496;28;20252;-77
2021/05/27 02:43:52;;;;;;;4.05;3.00;;;9.40;97.60;;;;;;5135371;28;20184;-77
2021/05/27 02:46:19;;;;;;;3.25;2.90;;;9.40;97.70;;;;;;5134271;28;20654;-78
2021/05/27 02:48:46;;;;;;;3.38;3.08;;;9.30;97.90;;;;;;5134808;28;20239;-78
2021/05/27 02:51:13;;;;;;;3.13;2.90;;;9.30;98.60;;;;;;5134729;28;20204;-78
2021/05/27 02:53:39;;;;;;;5.45;3.30;;;9.30;98.60;;;;;;5123451;28;20207;-77
2021/05/27 02:56:06;;;;;;;4.55;2.92;;;9.30;99.30;;;;;;5128352;28;20217;-76
2021/05/27 02:58:33;;;;;;;3.42;3.13;;;9.30;99.60;;;;;;5122775;28;20719;-77
2021/05/27 03:00:59;;;;;;;4.93;3.80;;;9.40;99.90;;;;;;5131530;28;20211;-78
2021/05/27 03:03:26;;;;;;;3.20;2.90;;;9.40;99.90;;;;;;5134670;28;20220;-77
2021/05/27 03:05:53;;;;;;;2.80;2.60;;;9.40;99.90;;;;;;5135083;28;20196;-77
2021/05/27 03:08:19;;;;;;;4.55;3.13;;;9.40;99.90;;;;;;5130716;28;20285;-79
2021/05/27 03:10:46;;;;;;;3.20;2.90;;;9.40;99.90;;;;;;5120873;28;20211;-77
2021/05/27 03:13:12;;;;;;;4.18;2.95;;;9.50;99.80;;;;;;5123260;28;20295;-77
2021/05/27 03:15:39;;;;;;;3.42;3.13;;;9.50;99.80;;;;;;5122582;28;20243;-78
2021/05/27 03:18:06;;;;;;;3.15;2.70;;;9.50;99.60;;;;;;5116386;28;20750;-78
2021/05/27 03:20:34;;;;;;;3.08;2.60;;;9.50;99.40;;;;;;5119863;28;20208;-77
2021/05/27 03:23:02;;;;;;;4.63;3.28;;;9.50;99.00;;;;;;5127818;28;20208;-77
2021/05/27 03:25:28;;;;;;;4.40;3.05;;;9.50;99.20;;;;;;5131893;28;20232;-77
2021/05/27 03:27:55;;;;;;;2.85;2.60;;;9.60;99.20;;;;;;5132428;28;20313;-77
2021/05/27 03:30:21;;;;;;;3.25;2.78;;;9.60;99.20;;;;;;5135295;28;20220;-77
2021/05/27 03:32:48;;;;;;;3.05;2.75;;;9.70;98.80;;;;;;5130161;28;20204;-78
2021/05/27 03:35:14;;;;;;;3.75;2.78;;;9.70;98.70;;;;;;5116681;28;20219;-77
2021/05/27 03:37:41;;;;;;;3.33;2.58;;;9.80;98.70;;;;;;5115836;28;20231;-77
2021/05/27 03:40:11;;;;;;;2.70;2.50;;;9.90;98.50;;;;;;5116821;28;20237;-78
2021/05/27 03:42:38;;;;;;;3.25;2.40;;;9.90;97.40;;;;;;5117342;28;20629;-80
2021/05/27 03:45:06;;;;;;;2.50;2.30;;;9.90;96.80;;;;;;5116534;28;20717;-77
2021/05/27 03:47:32;;;;;;;2.72;2.55;;;10.00;96.00;;;;;;5115497;28;20307;-76
2021/05/27 03:49:59;;;;;;;3.30;2.65;;;10.00;95.70;;;;;;5116056;28;20394;-77
2021/05/27 03:52:25;;;;;;;2.58;2.38;;;10.00;95.20;;;;;;5119194;28;20287;-77
2021/05/27 03:54:52;;;;;;;3.05;2.80;;;10.10;94.90;;;;;;5117589;28;20283;-77
2021/05/27 03:57:19;;;;;;;2.45;2.25;;;10.20;94.90;;;;;;5116216;28;20547;-78
2021/05/27 04:02:29;;;;;;;2.50;2.30;;;10.20;93.30;;;;;;5136322;28;20195;-77
2021/05/27 04:07:40;;;;;;;4.03;2.97;;;10.20;93.20;;;;;;5138112;27;20246;-76
2021/05/27 04:10:09;;;;;;;2.60;2.40;;;10.20;92.80;;;;;;5138492;27;20189;-77
2021/05/27 04:12:46;;;;;;;2.80;2.60;;;10.20;92.80;;;;;;5132609;27;20189;-77
2021/05/27 04:15:21;;;;;;;2.45;2.20;;;10.30;92.30;;;;;;5124639;28;20200;-78
2021/05/27 04:17:49;;;;;;;2.45;2.30;;;10.30;92.30;;;;;;5116942;28;20232;-77
2021/05/27 04:20:15;;;;;;;3.17;2.38;;;10.30;92.00;;;;;;5119273;28;20228;-78
2021/05/27 04:22:42;;;;;;;3.20;2.75;;;10.40;91.40;;;;;;5126010;28;20232;-78
2021/05/27 04:25:10;;;;;;;3.08;2.60;;;10.40;91.40;;;;;;5119862;28;20329;-78
2021/05/27 04:27:38;;;;;;;3.08;2.72;;;10.40;91.10;;;;;;5116642;28;20710;-77
2021/05/27 04:30:15;;;;;;;3.15;2.85;;;10.50;90.70;;;;;;5121620;28;20208;-77
2021/05/27 04:32:57;;;;;;;2.78;2.58;;;10.60;90.30;;;;;;5125995;28;20211;-77
2021/05/27 04:35:35;;;;;;;3.85;3.45;;;10.70;90.20;;;;;;5121800;28;20219;-78
2021/05/27 04:38:05;;;;;;;2.70;2.50;;;10.80;88.80;;;;;;5123877;28;20335;-77
2021/05/27 04:40:32;;;;;;;2.95;2.75;;;10.90;86.50;;;;;;5124384;28;20257;-77
2021/05/27 04:42:59;;;;;;;3.30;2.70;;;11.00;85.60;;;;;;5135392;27;20211;-78
2021/05/27 04:45:26;;;;;;;3.30;3.00;;;11.30;83.80;;;;;;5135200;28;20204;-77
2021/05/27 04:47:53;;;;;;;2.58;2.38;;;11.60;80.60;;;;;;5135497;27;20248;-76
2021/05/27 04:50:21;;;;;;;2.95;2.38;;;11.80;77.90;;;;;;5136185;27;20200;-77
2021/05/27 04:52:47;;;;;;;3.45;2.83;;;12.00;76.20;;;;;;5136402;28;20264;-76
2021/05/27 04:55:14;;;;;;;2.70;2.50;;;12.70;72.60;;;;;;5127769;28;20652;-78
2021/05/27 04:57:41;;;;;;;4.10;2.47;;;13.20;65.20;;;;;;5125532;28;20235;-77
2021/05/27 05:00:12;;;;;;;2.10;2.00;;;14.00;62.30;;;;;;5119904;28;20523;-77
2021/05/27 05:02:38;;;;;;;2.10;1.90;;;14.70;57.40;;;;;;5122877;28;20287;-77
2021/05/27 05:05:08;;;;;;;3.05;1.90;;;15.20;54.10;;;;;;5129660;28;20267;-78
2021/05/27 05:07:38;;;;;;;2.55;2.35;;;15.20;52.20;;;;;;5129501;28;20473;-77
2021/05/27 05:10:05;;;;;;;3.35;2.28;;;15.20;53.10;;;;;;5126921;28;20201;-78
2021/05/27 05:12:44;;;;;;;2.20;1.80;;;15.50;51.50;;;;;;5124465;28;20211;-77
2021/05/27 05:15:13;;;;;;;5.07;2.03;;;15.80;49.80;;;;;;5116412;27;20458;-78
2021/05/27 05:17:40;;;;;;;2.70;2.17;;;16.10;48.80;;;;;;5118157;28;20369;-76
2021/05/27 05:20:08;;;;;;;3.03;2.07;;;16.20;47.40;;;;;;5118146;28;20518;-77
2021/05/27 05:22:34;;;;;;;2.10;1.93;;;15.90;48.30;;;;;;5118751;28;20446;-78
2021/05/27 05:25:01;;;;;;;2.67;2.40;;;16.10;47.60;;;;;;5117670;28;20425;-77
2021/05/27 05:27:27;;;;;;;4.65;1.73;;;16.00;47.10;;;;;;5116510;28;20460;-78
2021/05/27 05:29:54;;;;;;;2.10;2.00;;;16.10;48.00;;;;;;5108108;28;20369;-76
2021/05/27 05:32:21;;;;;;;4.03;2.13;;;16.10;46.50;;;;;;5095284;28;21013;-78
2021/05/27 05:34:47;;;;;;;4.97;2.53;;;16.20;45.60;;;;;;5099639;28;20430;-78
2021/05/27 05:37:14;;;;;;;2.57;2.30;;;16.10;46.50;;;;;;5093731;28;20599;-78
2021/05/27 05:39:40;;;;;;;4.30;2.33;;;16.00;46.10;;;;;;5109622;28;20585;-79
2021/05/27 05:42:07;;;;;;;3.50;2.38;;;15.80;46.70;;;;;;5128476;28;20594;-76
2021/05/27 05:44:33;;;;;;;2.30;2.10;;;15.70;47.30;;;;;;5132233;28;20234;-77
2021/05/27 05:46:59;;;;;;;2.80;2.20;;;15.60;48.00;;;;;;5125894;28;20425;-75
2021/05/27 05:49:27;;;;;;;3.15;2.50;;;16.00;47.00;;;;;;5109371;28;20510;-77
2021/05/27 05:51:53;;;;;;;2.97;2.40;;;15.80;45.20;;;;;;5104673;28;20208;-76
2021/05/27 05:54:19;;;;;;;4.93;2.25;;;15.80;45.00;;;;;;5115819;28;20204;-76
2021/05/27 05:56:46;;;;;;;4.38;3.08;;;15.30;46.60;;;;;;5127223;28;20235;-78
2021/05/27 05:59:12;;;;;;;3.03;2.45;;;15.50;46.20;;;;;;5117539;28;20557;-78
2021/05/27 06:01:39;;;;;;;2.60;2.40;;;16.00;45.10;;;;;;5117316;28;20287;-78
2021/05/27 06:04:05;;;;;;;2.97;2.17;;;16.60;44.80;;;;;;5118408;28;20860;-78
2021/05/27 06:06:33;;;;;;;4.80;2.20;;;17.20;42.30;;;;;;5126055;28;20488;-77
2021/05/27 06:08:59;;;;;;;2.70;2.20;;;17.60;41.90;;;;;;5121737;28;20581;-77
2021/05/27 06:11:26;;;;;;;2.80;2.60;;;17.80;40.20;;;;;;5113657;28;20573;-78
2021/05/27 06:13:53;;;;;;;3.83;2.57;;;16.90;42.70;;;;;;5110751;28;20742;-76
2021/05/27 06:16:20;;;;;;;6.53;2.60;;;16.20;43.10;;;;;;5109629;28;20454;-75
2021/05/27 06:18:46;;;;;;;2.95;2.75;;;15.50;44.80;;;;;;5110508;22;20571;-78
2021/05/27 06:21:13;;;;;;;4.60;2.20;;;15.30;46.10;;;;;;5090241;28;20189;-78
2021/05/27 06:23:40;;;;;;;2.83;2.63;;;15.40;46.90;;;;;;5088115;28;20433;-79
2021/05/27 06:26:07;;;;;;;3.22;2.75;;;15.00;47.40;;;;;;5092591;28;20221;-79
2021/05/27 06:28:33;;;;;;;5.35;2.90;;;14.70;48.80;;;;;;5089260;28;20577;-78
2021/05/27 06:31:00;;;;;;;3.40;2.50;;;14.40;49.70;;;;;;5095131;28;20257;-77
2021/05/27 06:33:26;;;;;;;3.45;2.55;;;14.40;51.00;;;;;;5095416;28;20244;-77
2021/05/27 06:35:54;;;;;;;2.47;2.28;;;14.90;47.90;;;;;;5090110;28;20201;-78
2021/05/27 06:38:20;;;;;;;8.50;2.60;;;15.10;46.90;;;;;;5090358;28;20308;-78
2021/05/27 06:40:48;;;;;;;2.83;2.50;;;15.20;45.60;;;;;;5079347;28;20427;-78
2021/05/27 06:43:14;;;;;;;2.80;2.40;;;15.10;47.00;;;;;;5083490;28;20205;-78
2021/05/27 06:45:40;;;;;;;4.45;2.80;;;15.10;46.30;;;;;;5086570;28;20448;-79
2021/05/27 06:48:07;;;;;;;5.45;2.50;;;15.20;47.20;;;;;;5081762;28;20240;-78
2021/05/27 06:50:35;;;;;;;5.83;3.10;;;15.40;45.40;;;;;;5083871;28;20224;-78
2021/05/27 06:53:03;;;;;;;4.32;2.42;;;15.40;44.50;;;;;;5082134;28;20788;-77
2021/05/27 06:55:30;;;;;;;7.25;3.65;;;14.80;45.10;;;;;;5083866;28;20668;-78
2021/05/27 06:57:57;;;;;;;3.72;2.65;;;14.40;47.40;;;;;;5082187;28;20260;-77
2021/05/27 07:00:25;;;;;;;5.03;2.78;;;14.10;49.30;;;;;;5079670;28;20228;-78
2021/05/27 07:02:52;;;;;;;3.70;2.72;;;14.10;48.90;;;;;;5079837;28;20217;-78
2021/05/27 07:05:19;;;;;;;9.40;5.93;;;14.20;49.00;;;;;;5086275;28;20231;-77
2021/05/27 07:07:46;;;;;;;4.65;3.08;;;14.30;48.60;;;;;;5098717;28;20225;-77
2021/05/27 07:10:15;;;;;;;2.78;2.50;;;14.40;47.80;;;;;;5093843;28;20198;-78
2021/05/27 07:12:48;;;;;;;4.75;3.65;;;14.50;47.30;;;;;;5086195;28;20225;-78
2021/05/27 07:15:16;;;;;;;4.50;2.50;;;14.50;46.80;;;;;;5084432;28;20217;-78
2021/05/27 07:17:42;;;;;;;5.22;2.40;;;14.60;46.70;;;;;;5085247;28;20280;-79
2021/05/27 07:20:10;;;;;;;5.18;2.53;;;14.50;46.80;;;;;;5086623;28;20220;-78
2021/05/27 07:22:36;;;;;;;3.55;2.65;;;14.60;46.50;;;;;;5088320;28;20216;-78
2021/05/27 07:25:04;;;;;;;2.67;2.45;;;14.60;46.70;;;;;;5086237;28;20197;-78
2021/05/27 07:27:30;;;;;;;2.85;2.60;;;14.90;47.00;;;;;;5085446;28;20222;-79
2021/05/27 07:29:57;;;;;;;4.22;2.45;;;15.10;46.00;;;;;;5091879;28;20206;-78
2021/05/27 07:32:24;;;;;;;7.20;2.47;;;15.10;45.70;;;;;;5112193;28;20309;-79
2021/05/27 07:34:51;;;;;;;2.80;2.25;;;15.20;45.30;;;;;;5116080;28;20173;-79
2021/05/27 07:37:17;;;;;;;3.07;2.77;;;15.60;44.40;;;;;;5098812;28;20234;-79
2021/05/27 07:39:43;;;;;;;5.63;2.97;;;15.70;43.90;;;;;;5097457;28;20471;-77
2021/05/27 07:42:10;;;;;;;3.00;2.70;;;15.60;44.70;;;;;;5106499;28;20206;-77
2021/05/27 07:44:37;;;;;;;2.72;2.53;;;15.30;44.40;;;;;;5091597;28;20279;-78
2021/05/27 07:47:04;;;;;;;3.40;2.10;;;15.40;44.50;;;;;;5090460;28;20201;-77
2021/05/27 07:49:31;;;;;;;3.78;2.60;;;15.50;44.00;;;;;;5098045;28;20590;-77
2021/05/27 07:51:58;;;;;;;4.68;3.30;;;15.20;44.40;;;;;;5098209;28;20213;-78
2021/05/27 07:54:25;;;;;;;3.53;2.60;;;15.30;44.40;;;;;;5105877;28;20208;-78
2021/05/27 07:56:52;;;;;;;3.28;2.72;;;15.40;44.50;;;;;;5115878;28;20216;-77
2021/05/27 07:59:19;;;;;;;2.97;2.58;;;15.30;44.40;;;;;;5105541;28;20230;-78
2021/05/27 08:01:45;;;;;;;4.38;2.40;;;15.10;43.80;;;;;;5083114;28;20205;-78
2021/05/27 08:04:12;;;;;;;2.55;2.28;;;14.90;44.10;;;;;;5080507;28;20209;-78
2021/05/27 08:06:40;;;;;;;3.33;2.42;;;14.90;44.10;;;;;;5079680;28;20213;-77
2021/05/27 08:09:08;;;;;;;2.90;2.40;;;15.00;43.90;;;;;;5096826;28;20225;-79
2021/05/27 08:11:34;;;;;;;2.90;2.67;;;14.90;44.00;;;;;;5101170;28;20724;-77
2021/05/27 08:14:01;;;;;;;4.00;2.25;;;15.10;44.30;;;;;;5089810;28;20471;-78
2021/05/27 08:16:27;;;;;;;3.40;2.60;;;15.40;41.80;;;;;;5079726;28;20513;-77
2021/05/27 08:18:54;;;;;;;4.32;2.15;;;15.60;41.60;;;;;;5082041;28;20567;-77
2021/05/27 08:21:20;;;;;;;2.73;2.20;;;15.70;41.40;;;;;;5080195;28;20236;-77
2021/05/27 08:23:48;;;;;;;4.40;2.25;;;15.90;41.50;;;;;;5080190;28;20848;-79
2021/05/27 08:26:15;;;;;;;3.50;2.23;;;16.20;41.10;;;;;;5100659;28;20231;-78
2021/05/27 08:28:41;;;;;;;2.30;2.10;;;16.10;40.40;;;;;;5085700;28;21013;-78
2021/05/27 08:31:07;;;;;;;5.47;2.50;;;16.10;39.40;;;;;;5083424;28;20539;-77
2021/05/27 08:33:34;;;;;;;3.80;2.50;;;15.90;39.60;;;;;;5087903;28;20463;-79
2021/05/27 08:36:00;;;;;;;2.80;2.03;;;15.80;40.60;;;;;;5092069;28;20863;-78
2021/05/27 08:38:27;;;;;;;3.13;2.20;;;15.60;40.00;;;;;;5112649;28;20479;-77
2021/05/27 08:40:56;;;;;;;5.43;2.10;;;15.60;40.10;;;;;;5111410;28;20461;-78
2021/05/27 08:43:23;;;;;;;2.37;2.10;;;15.60;40.90;;;;;;5062669;28;20221;-79
2021/05/27 08:45:50;;;;;;;4.13;2.23;;;15.40;41.30;;;;;;5065454;28;20503;-78
2021/05/27 08:48:17;;;;;;;3.38;2.28;;;15.20;41.70;;;;;;5081012;28;20860;-78
2021/05/27 08:50:45;;;;;;;2.80;2.53;;;15.00;42.50;;;;;;5080234;28;20272;-78
2021/05/27 08:53:12;;;;;;;3.65;2.20;;;15.00;42.50;;;;;;5086126;28;20456;-78
2021/05/27 08:55:39;;;;;;;2.30;2.10;;;14.90;42.30;;;;;;5082873;28;20206;-78
2021/05/27 08:58:07;;;;;;;2.85;2.30;;;15.00;42.40;;;;;;5078956;28;20256;-78
2021/05/27 09:00:35;;;;;;;3.00;2.60;;;15.00;41.60;;;;;;5075682;28;20221;-78
2021/05/27 09:03:03;;;;;;;2.15;2.05;;;15.10;42.10;;;;;;5082490;28;20757;-77
2021/05/27 09:05:32;;;;;;;3.43;2.20;;;15.20;41.70;;;;;;5084086;28;20202;-78
2021/05/27 09:07:58;;;;;;;4.63;2.63;;;15.50;41.10;;;;;;5094848;28;20487;-80
2021/05/27 09:10:43;;;;;;;2.50;2.30;;;15.60;41.30;;;;;;5101373;28;20484;-79
2021/05/27 09:13:12;;;;;;;2.33;1.98;;;15.60;40.80;;;;;;5082918;28;20612;-78
2021/05/27 09:15:41;;;;;;;2.97;2.47;;;15.40;40.50;;;;;;5082791;28;20197;-78
2021/05/27 09:18:08;;;;;;;2.78;2.13;;;15.50;40.40;;;;;;5093560;28;20264;-78
2021/05/27 09:20:36;;;;;;;2.08;1.92;;;15.60;40.00;;;;;;5106207;28;20205;-79
2021/05/27 09:23:09;;;;;;;3.35;2.00;;;15.70;39.80;;;;;;5107934;28;20331;-79
2021/05/27 09:25:37;;;;;;;8.32;2.58;;;15.80;40.60;;;;;;5100267;28;20485;-79
2021/05/27 09:28:04;;;;;;;3.10;2.20;;;15.60;40.70;;;;;;5078463;28;20658;-78
2021/05/27 09:30:40;;;;;;;2.00;1.90;;;15.60;40.50;;;;;;5079310;28;20456;-78
2021/05/27 09:33:07;;;;;;;2.55;2.35;;;15.60;40.90;;;;;;5079457;28;20439;-78
2021/05/27 09:35:33;;;;;;;2.45;2.25;;;15.50;40.90;;;;;;5090322;28;20252;-77
2021/05/27 09:38:00;;;;;;;4.38;2.42;;;15.40;40.80;;;;;;5101699;28;20286;-78
2021/05/27 09:40:36;;;;;;;2.85;1.95;;;15.40;40.80;;;;;;5102545;28;20197;-78
2021/05/27 09:43:03;;;;;;;3.67;2.10;;;15.40;40.50;;;;;;5077962;28;20213;-78
2021/05/27 09:45:33;;;;;;;4.43;2.03;;;15.40;40.90;;;;;;5070387;28;20205;-78
2021/05/27 09:48:16;;;;;;;1.73;1.63;;;15.50;40.30;;;;;;5086506;28;21093;-78
2021/05/27 09:50:42;;;;;;;3.53;2.70;;;15.50;40.80;;;;;;5085211;28;20229;-80
2021/05/27 09:53:14;;;;;;;2.20;2.10;;;15.50;40.40;;;;;;5083069;28;20237;-78
2021/05/27 09:55:40;;;;;;;2.35;1.90;;;15.50;40.00;;;;;;5084715;28;20209;-79
2021/05/27 09:58:08;;;;;;;5.57;2.45;;;15.60;39.90;;;;;;5091066;28;20303;-79
2021/05/27 10:00:36;;;;;;;3.40;2.42;;;15.70;39.80;;;;;;5089357;28;20201;-79
2021/05/27 10:03:23;;;;;;;2.07;1.87;;;15.60;39.70;;;;;;5083852;28;20581;-79
2021/05/27 10:05:50;;;;;;;1.93;1.70;;;15.70;39.50;;;;;;5088267;28;20452;-79
2021/05/27 10:08:17;;;;;;;2.23;2.03;;;15.80;38.90;;;;;;5083404;28;20495;-79
2021/05/27 10:10:44;;;;;;;4.25;2.45;;;15.80;39.00;;;;;;5085720;28;20467;-78
2021/05/27 10:13:13;;;;;;;3.20;1.83;;;16.00;38.30;;;;;;5086378;28;20213;-79
2021/05/27 10:15:43;;;;;;;5.03;2.53;;;16.10;38.50;;;;;;5087717;28;20411;-79
2021/05/27 10:18:09;;;;;;;2.30;2.10;;;16.50;36.80;;;;;;5087728;28;20476;-80
2021/05/27 10:20:36;;;;;;;2.23;2.07;;;16.70;37.10;;;;;;5096321;28;20451;-78
2021/05/27 10:23:05;;;;;;;2.83;1.83;;;16.90;35.90;;;;;;5093813;28;20436;-79
2021/05/27 10:25:32;;;;;;;4.20;2.20;;;17.00;36.00;;;;;;5091419;28;20490;-79
2021/05/27 10:28:02;;;;;;;2.60;2.00;;;17.00;36.00;;;;;;5079561;28;20487;-79
2021/05/27 10:30:30;;;;;;;1.70;1.60;;;16.80;35.80;;;;;;5081741;28;20448;-78
2021/05/27 10:33:01;;;;;;;2.43;2.00;;;16.80;35.80;;;;;;5081069;28;20448;-81
2021/05/27 10:35:55;;;;;;;2.77;1.60;;;16.70;36.30;;;;;;5080200;28;20444;-79
2021/05/27 10:38:50;;;;;;;2.07;1.87;;;16.80;35.90;;;;;;5060914;28;20837;-78
2021/05/27 10:41:19;;;;;;;2.83;1.87;;;16.70;36.40;;;;;;5063221;28;20481;-78
2021/05/27 10:44:15;;;;;;;5.93;2.10;;;16.90;35.90;;;;;;5064240;28;20508;-80
2021/05/27 10:47:19;;;;;;;4.00;2.03;;;16.90;35.90;;;;;;5065670;28;20492;-80
2021/05/27 10:49:55;;;;;;;1.80;1.50;;;17.00;36.00;;;;;;5066540;28;20487;-79
2021/05/27 10:52:38;;;;;;;3.80;2.00;;;16.90;35.60;;;;;;5071452;28;20460;-78
2021/05/27 10:55:24;;;;;;;2.30;2.03;;;16.80;35.80;;;;;;5078621;28;20437;-78
2021/05/27 10:57:50;;;;;;;3.40;1.80;;;16.70;35.70;;;;;;5088882;28;20484;-78
2021/05/27 11:00:51;;;;;;;3.37;2.17;;;16.70;35.70;;;;;;5088814;28;20494;-79
2021/05/27 11:03:49;;;;;;;3.67;1.80;;;16.80;35.80;;;;;;5073800;28;20697;-79
2021/05/27 11:06:26;;;;;;;2.00;1.80;;;17.10;36.10;;;;;;5073650;28;20445;-77
2021/05/27 11:09:38;;;;;;;2.27;1.80;;;17.40;35.60;;;;;;5065031;28;20482;-78
2021/05/27 11:12:23;;;;;;;2.07;1.83;;;17.80;34.10;;;;;;5028537;28;20442;-78
2021/05/27 11:15:10;;;;;;;6.30;2.27;;;17.60;33.40;;;;;;5063505;28;20841;-78
2021/05/27 11:17:37;;;;;;;3.17;1.70;;;17.10;34.90;;;;;;5068627;28;20445;-78
2021/05/27 11:20:08;;;;;;;5.40;2.40;;;17.00;34.30;;;;;;5079182;28;20416;-77
2021/05/27 11:22:59;;;;;;;2.60;2.00;;;16.50;35.50;;;;;;5083230;28;20445;-78
2021/05/27 11:25:30;;;;;;;5.00;1.90;;;16.50;35.50;;;;;;5080770;28;20455;-78
2021/05/27 11:27:58;;;;;;;3.07;1.80;;;16.50;35.60;;;;;;5078979;28;20491;-80
2021/05/27 11:30:29;;;;;;;1.83;1.73;;;16.60;35.70;;;;;;5078086;28;20468;-79
2021/05/27 11:32:58;;;;;;;5.40;1.90;;;16.60;35.60;;;;;;5080048;28;20451;-80
2021/05/27 11:35:26;;;;;;;6.57;2.20;;;16.50;35.50;;;;;;5082722;28;20538;-79
2021/05/27 11:37:55;;;;;;;2.90;2.08;;;16.30;35.30;;;;;;5085063;28;20487;-78
2021/05/27 11:40:29;;;;;;;3.92;1.90;;;16.00;37.10;;;;;;5080946;28;20241;-79
2021/05/27 11:42:56;;;;;;;2.80;1.93;;;16.10;37.60;;;;;;5081049;28;20697;-78
2021/05/27 11:45:24;;;;;;;2.27;1.87;;;16.20;36.70;;;;;;5079071;28;20451;-79
2021/05/27 11:48:09;;;;;;;3.33;1.97;;;16.40;35.40;;;;;;5082443;28;20539;-80
2021/05/27 11:50:35;;;;;;;2.67;2.03;;;16.40;35.40;;;;;;5079118;28;20444;-79
2021/05/27 11:53:03;;;;;;;5.73;1.90;;;16.50;35.50;;;;;;5096244;28;20815;-79
2021/05/27 11:55:30;;;;;;;3.90;2.10;;;16.40;35.40;;;;;;5085189;28;20413;-79
2021/05/27 11:57:57;;;;;;;2.13;1.93;;;16.20;35.20;;;;;;5083848;28;20434;-80
2021/05/27 12:00:24;;;;;;;2.07;1.87;;;16.00;35.60;;;;;;5081537;28;20426;-79
2021/05/27 12:02:52;;;;;;;2.97;1.80;;;15.90;36.30;;;;;;5080840;28;20472;-78
2021/05/27 12:05:23;;;;;;;3.03;1.87;;;15.80;36.30;;;;;;5083228;28;20476;-79
2021/05/27 12:08:01;;;;;;;2.80;2.07;;;15.80;36.80;;;;;;5084895;28;20565;-79
2021/05/27 12:10:31;;;;;;;2.15;1.95;;;15.90;36.40;;;;;;5083573;28;20481;-79
2021/05/27 12:12:59;;;;;;;4.97;2.50;;;16.00;36.00;;;;;;5084164;28;20205;-80
2021/05/27 12:15:26;;;;;;;2.87;2.00;;;16.00;36.00;;;;;;5086787;28;20436;-79
2021/05/27 12:20:32;;;;;;;2.33;1.67;;;16.00;36.90;;;;;;5118592;28;20469;-79
2021/05/27 12:23:03;;;;;;;5.87;2.77;;;16.00;36.60;;;;;;5118609;28;20449;-79
2021/05/27 12:25:31;;;;;;;2.10;1.90;;;16.20;36.90;;;;;;5121771;28;20453;-79
2021/05/27 12:27:59;;;;;;;2.90;2.03;;;16.60;35.60;;;;;;5120812;28;20602;-78
2021/05/27 12:30:28;;;;;;;2.60;2.33;;;16.80;35.80;;;;;;5120685;28;20483;-78
2021/05/27 12:32:56;;;;;;;3.20;1.83;;;16.90;35.90;;;;;;5121501;28;20459;-79
2021/05/27 12:35:25;;;;;;;2.60;2.10;;;16.70;35.70;;;;;;5121404;28;20445;-79
2021/05/27 12:37:54;;;;;;;1.93;1.73;;;16.60;35.60;;;;;;5106994;28;20495;-79
2021/05/27 12:40:24;;;;;;;3.80;2.13;;;16.40;36.20;;;;;;5099782;28;20966;-79
2021/05/27 12:42:53;;;;;;;3.13;2.10;;;16.40;36.40;;;;;;5100886;28;20434;-80
2021/05/27 12:45:27;;;;;;;2.40;2.00;;;16.30;36.70;;;;;;5101582;28;20445;-80
2021/05/27 12:48:18;;;;;;;7.23;2.50;;;16.20;37.00;;;;;;5110038;28;20427;-80
2021/05/27 12:51:00;;;;;;;2.70;2.20;;;16.30;37.00;;;;;;5095255;28;20429;-79
2021/05/27 12:53:29;;;;;;;2.10;2.00;;;16.50;35.50;;;;;;5110744;28;20481;-80
2021/05/27 12:55:58;;;;;;;2.10;1.87;;;16.70;35.70;;;;;;5104437;28;20424;-79
2021/05/27 12:58:33;;;;;;;3.53;1.80;;;16.80;35.80;;;;;;5104034;28;20814;-79
2021/05/27 13:01:01;;;;;;;3.60;2.07;;;16.80;36.50;;;;;;5108456;28;20461;-80
2021/05/27 13:03:29;;;;;;;2.27;2.07;;;16.60;35.20;;;;;;5109235;28;20526;-79
2021/05/27 13:06:10;;;;;;;2.60;1.60;;;16.40;35.40;;;;;;5101686;28;20447;-79